Time;durP1;ratioP1;P1;durP2;ratioP2;P2;SDS_P1;SDS_P2;PMS_P1;PMS_P2;Temp;Humidity;BMP_temperature;BMP_pressure;BME280_temperature;BME280_humidity;BME280_pressure;Samples;Min_cycle;Max_cycle;Signal;HPM_P1;HPM_P2
2023/05/30 00:00:07;;;;;;;5.18;1.23;;;11.30;87.90;;;;;;5059407;28;20139;-75
2023/05/30 00:02:37;;;;;;;3.95;1.70;;;11.30;88.60;;;;;;5049948;28;20052;-75
2023/05/30 00:05:06;;;;;;;4.35;1.30;;;11.20;90.10;;;;;;5055153;28;20063;-75
2023/05/30 00:07:33;;;;;;;4.45;2.03;;;11.20;90.70;;;;;;5068456;28;20193;-75
2023/05/30 00:10:02;;;;;;;2.20;1.17;;;11.20;91.10;;;;;;5065580;28;20048;-75
2023/05/30 00:12:32;;;;;;;1.35;0.95;;;11.10;92.10;;;;;;5069183;28;20127;-75
2023/05/30 00:15:01;;;;;;;4.90;1.38;;;11.10;93.00;;;;;;5085717;28;20167;-74
2023/05/30 00:17:32;;;;;;;2.08;1.42;;;11.10;93.70;;;;;;5045162;28;20048;-75
2023/05/30 00:20:00;;;;;;;3.90;1.27;;;11.00;94.90;;;;;;5056447;28;20563;-74
2023/05/30 00:22:28;;;;;;;4.25;1.38;;;11.10;96.90;;;;;;5052150;28;20048;-74
2023/05/30 00:24:59;;;;;;;7.55;2.20;;;11.10;98.60;;;;;;5036123;28;20429;-75
2023/05/30 00:27:29;;;;;;;6.13;2.00;;;11.10;99.90;;;;;;5058780;28;20102;-74
2023/05/30 00:29:56;;;;;;;2.22;1.08;;;11.10;99.90;;;;;;5073954;28;20402;-75
2023/05/30 00:32:25;;;;;;;4.30;1.40;;;11.10;99.90;;;;;;5069015;28;20045;-75
2023/05/30 00:34:53;;;;;;;5.47;1.50;;;11.20;99.90;;;;;;5067627;28;20099;-75
2023/05/30 00:37:20;;;;;;;6.75;2.00;;;11.20;99.90;;;;;;5068672;28;20055;-75
2023/05/30 00:39:48;;;;;;;6.43;1.52;;;11.20;99.90;;;;;;5051158;28;20098;-75
2023/05/30 00:42:15;;;;;;;8.63;1.45;;;11.20;99.90;;;;;;5064503;28;20052;-76
2023/05/30 00:44:45;;;;;;;2.92;1.30;;;11.20;99.90;;;;;;5066048;28;20417;-75
2023/05/30 00:47:14;;;;;;;4.20;1.30;;;11.20;99.90;;;;;;5043034;28;20436;-75
2023/05/30 00:49:42;;;;;;;5.65;1.70;;;11.20;99.90;;;;;;5070697;28;20147;-76
2023/05/30 00:52:09;;;;;;;4.63;1.05;;;11.20;99.90;;;;;;5071096;28;20041;-75
2023/05/30 00:54:38;;;;;;;4.43;1.13;;;11.20;99.90;;;;;;5066405;28;20574;-75
2023/05/30 00:57:07;;;;;;;1.60;0.88;;;11.20;99.90;;;;;;5054184;28;20075;-75
2023/05/30 00:59:35;;;;;;;10.55;1.45;;;11.20;99.90;;;;;;5069725;28;20040;-76
2023/05/30 01:02:05;;;;;;;6.97;2.15;;;11.20;99.90;;;;;;5056502;28;20091;-76
2023/05/30 01:04:33;;;;;;;3.95;1.48;;;11.20;99.90;;;;;;5067898;28;20048;-75
2023/05/30 01:07:01;;;;;;;2.70;1.40;;;11.10;99.90;;;;;;5066517;28;20060;-75
2023/05/30 01:09:29;;;;;;;2.10;1.10;;;11.10;99.90;;;;;;5051829;28;20048;-76
2023/05/30 01:12:06;;;;;;;4.47;1.35;;;11.10;99.90;;;;;;5050861;28;20048;-75
2023/05/30 01:14:41;;;;;;;5.40;0.98;;;11.10;99.90;;;;;;5052659;28;20095;-75
2023/05/30 01:17:22;;;;;;;2.88;0.85;;;11.00;99.90;;;;;;5055229;28;20044;-75
2023/05/30 01:20:07;;;;;;;3.05;0.90;;;11.00;99.90;;;;;;5054641;28;20049;-76
2023/05/30 01:23:10;;;;;;;3.90;1.15;;;11.00;99.90;;;;;;5054714;28;20037;-76
2023/05/30 01:26:06;;;;;;;3.38;1.00;;;11.00;99.90;;;;;;5043967;28;20053;-75
2023/05/30 01:28:37;;;;;;;3.70;1.27;;;11.00;99.90;;;;;;5073842;28;20049;-76
2023/05/30 01:31:07;;;;;;;4.15;0.70;;;11.00;99.90;;;;;;5050177;28;20045;-75
2023/05/30 01:33:35;;;;;;;1.52;0.75;;;11.00;99.90;;;;;;5050275;28;20063;-76
2023/05/30 01:36:03;;;;;;;3.70;1.35;;;11.00;99.90;;;;;;5052874;28;20099;-75
2023/05/30 01:38:31;;;;;;;1.65;1.25;;;11.00;99.90;;;;;;5053799;28;20052;-76
2023/05/30 01:41:01;;;;;;;2.95;1.05;;;11.00;99.90;;;;;;5043385;28;20052;-76
2023/05/30 01:43:41;;;;;;;2.72;0.80;;;11.00;99.90;;;;;;5049831;28;20141;-76
2023/05/30 01:46:23;;;;;;;2.40;0.77;;;11.00;99.90;;;;;;5067191;28;20564;-76
2023/05/30 01:49:02;;;;;;;3.55;0.98;;;11.10;99.90;;;;;;5053498;28;20097;-76
2023/05/30 01:51:37;;;;;;;4.03;1.00;;;11.10;99.90;;;;;;5048566;28;20394;-76
2023/05/30 01:54:07;;;;;;;2.47;0.95;;;11.10;99.90;;;;;;5049159;28;20073;-76
2023/05/30 01:56:37;;;;;;;1.05;0.70;;;11.10;99.50;;;;;;5061312;28;20420;-76
2023/05/30 01:59:09;;;;;;;2.88;1.13;;;11.10;99.30;;;;;;5047868;28;20147;-76
2023/05/30 02:01:37;;;;;;;4.72;1.00;;;11.10;98.80;;;;;;5061292;28;20049;-75
2023/05/30 02:04:05;;;;;;;4.95;1.23;;;11.10;98.30;;;;;;5054802;28;20061;-75
2023/05/30 02:06:33;;;;;;;3.10;0.80;;;11.20;98.30;;;;;;5066933;28;20048;-76
2023/05/30 02:09:01;;;;;;;3.05;0.80;;;11.20;98.80;;;;;;5055262;28;20110;-76
2023/05/30 02:11:29;;;;;;;2.13;0.80;;;11.20;98.00;;;;;;5050991;28;20051;-76
2023/05/30 02:13:57;;;;;;;3.15;1.10;;;11.20;98.00;;;;;;5061148;28;20513;-75
2023/05/30 02:16:26;;;;;;;5.78;1.17;;;11.20;98.40;;;;;;5053611;28;20135;-75
2023/05/30 02:18:54;;;;;;;2.05;0.85;;;11.20;98.70;;;;;;5049016;28;20523;-76
2023/05/30 02:21:22;;;;;;;1.75;0.88;;;11.30;99.40;;;;;;5070875;28;20459;-76
2023/05/30 02:23:49;;;;;;;3.63;1.48;;;11.30;99.90;;;;;;5066063;28;20084;-76
2023/05/30 02:26:17;;;;;;;4.45;0.98;;;11.30;99.90;;;;;;5058618;28;20044;-76
2023/05/30 02:28:45;;;;;;;3.35;0.80;;;11.30;99.90;;;;;;5048096;28;20098;-76
2023/05/30 02:31:12;;;;;;;3.45;0.73;;;11.30;99.90;;;;;;5067129;28;20086;-76
2023/05/30 02:33:41;;;;;;;2.90;0.90;;;11.40;99.90;;;;;;5047062;28;20056;-76
2023/05/30 02:36:09;;;;;;;3.08;0.80;;;11.40;99.90;;;;;;5054937;28;20140;-76
2023/05/30 02:38:37;;;;;;;2.75;0.90;;;11.40;99.90;;;;;;5068405;28;20045;-77
2023/05/30 02:41:05;;;;;;;4.00;0.95;;;11.40;99.90;;;;;;5055016;28;20045;-76
2023/05/30 02:43:33;;;;;;;3.70;1.40;;;11.40;99.90;;;;;;5052840;28;20041;-76
2023/05/30 02:46:04;;;;;;;2.40;0.90;;;11.40;99.90;;;;;;5032850;28;20425;-75
2023/05/30 02:48:34;;;;;;;4.25;0.98;;;11.40;99.90;;;;;;5049307;28;20072;-76
2023/05/30 02:51:04;;;;;;;1.98;0.70;;;11.30;99.90;;;;;;5054622;28;20053;-75
2023/05/30 02:53:31;;;;;;;7.60;0.93;;;11.30;99.90;;;;;;5059509;28;20173;-76
2023/05/30 02:56:00;;;;;;;3.03;0.70;;;11.30;99.90;;;;;;5060451;28;20098;-76
2023/05/30 02:58:40;;;;;;;3.92;0.90;;;11.30;99.90;;;;;;5067138;28;20152;-75
2023/05/30 03:01:26;;;;;;;6.88;1.20;;;11.20;99.90;;;;;;5051816;28;20141;-76
2023/05/30 03:03:53;;;;;;;6.65;1.20;;;11.30;99.90;;;;;;5051015;28;20040;-75
2023/05/30 03:06:38;;;;;;;3.20;1.15;;;11.30;99.90;;;;;;5069975;28;20049;-75
2023/05/30 03:09:38;;;;;;;4.72;1.05;;;11.30;99.90;;;;;;5041352;28;20049;-73
2023/05/30 03:12:07;;;;;;;6.47;1.00;;;11.20;99.90;;;;;;5073144;28;20063;-74
2023/05/30 03:14:35;;;;;;;2.35;1.20;;;11.20;99.90;;;;;;5038894;28;20512;-76
2023/05/30 03:17:05;;;;;;;1.67;1.00;;;11.30;99.90;;;;;;5059767;28;20049;-75
2023/05/30 03:19:32;;;;;;;4.32;1.20;;;11.30;99.90;;;;;;5057660;28;20115;-76
2023/05/30 03:22:04;;;;;;;3.92;1.42;;;11.30;99.90;;;;;;5036203;28;20082;-75
2023/05/30 03:24:33;;;;;;;4.85;1.25;;;11.40;99.90;;;;;;5049261;28;20535;-77
2023/05/30 03:27:02;;;;;;;5.88;1.40;;;11.50;99.90;;;;;;5056482;28;20045;-76
2023/05/30 03:29:30;;;;;;;3.88;1.00;;;11.50;99.90;;;;;;5054778;28;20579;-75
2023/05/30 03:31:58;;;;;;;6.82;1.42;;;11.50;99.90;;;;;;5048893;28;20531;-76
2023/05/30 03:34:27;;;;;;;5.70;1.48;;;11.50;99.90;;;;;;5032495;28;20049;-75
2023/05/30 03:36:55;;;;;;;8.50;1.98;;;11.60;99.90;;;;;;5055949;28;20045;-75
2023/05/30 03:39:24;;;;;;;3.58;1.23;;;11.70;99.90;;;;;;5042371;28;20685;-76
2023/05/30 03:41:51;;;;;;;6.65;1.75;;;11.80;99.90;;;;;;5054158;28;20635;-76
2023/05/30 03:44:21;;;;;;;4.40;1.33;;;11.80;99.90;;;;;;5059686;28;20462;-77
2023/05/30 03:46:51;;;;;;;4.07;1.20;;;11.90;99.90;;;;;;5065303;28;20072;-75
2023/05/30 03:49:19;;;;;;;5.43;2.13;;;11.90;99.90;;;;;;5065562;28;20159;-75
2023/05/30 03:51:48;;;;;;;4.00;1.30;;;12.00;99.90;;;;;;5069166;28;20516;-75
2023/05/30 03:54:16;;;;;;;6.63;1.10;;;12.10;99.90;;;;;;5070099;28;20051;-76
2023/05/30 03:56:45;;;;;;;7.65;1.42;;;12.10;99.90;;;;;;5069735;28;20055;-76
2023/05/30 03:59:12;;;;;;;4.10;1.58;;;12.10;99.90;;;;;;5035659;28;20049;-76
2023/05/30 04:01:40;;;;;;;7.30;1.60;;;12.10;99.90;;;;;;5056666;28;20075;-75
2023/05/30 04:04:08;;;;;;;4.28;1.55;;;12.20;99.90;;;;;;5066857;28;20052;-75
2023/05/30 04:06:36;;;;;;;5.78;1.42;;;12.30;99.90;;;;;;5056054;28;20087;-76
2023/05/30 04:09:05;;;;;;;4.50;1.70;;;12.30;99.90;;;;;;5035683;28;20044;-77
2023/05/30 04:11:33;;;;;;;7.60;1.58;;;12.40;99.90;;;;;;5059313;28;20346;-76
2023/05/30 04:14:03;;;;;;;4.97;1.50;;;12.50;99.90;;;;;;5067969;28;20517;-76
2023/05/30 04:16:30;;;;;;;7.35;1.80;;;12.50;99.90;;;;;;5038948;28;20512;-76
2023/05/30 04:18:58;;;;;;;7.95;1.70;;;12.50;99.90;;;;;;5054403;28;20131;-76
2023/05/30 04:21:27;;;;;;;5.15;1.50;;;12.50;99.90;;;;;;5070576;28;20055;-77
2023/05/30 04:23:54;;;;;;;6.03;2.35;;;12.50;99.90;;;;;;5068267;28;20098;-77
2023/05/30 04:26:22;;;;;;;7.97;3.35;;;12.50;99.90;;;;;;5057104;28;20060;-77
2023/05/30 04:28:52;;;;;;;5.50;2.08;;;12.50;99.90;;;;;;5053069;28;20045;-77
2023/05/30 04:31:22;;;;;;;5.82;1.42;;;12.30;99.90;;;;;;5060383;28;20143;-77
2023/05/30 04:33:52;;;;;;;5.22;1.70;;;12.20;99.90;;;;;;5060215;28;20049;-77
2023/05/30 04:36:23;;;;;;;14.63;1.83;;;12.30;99.90;;;;;;5035700;28;20052;-77
2023/05/30 04:38:52;;;;;;;7.45;1.98;;;12.40;99.90;;;;;;5065070;28;20045;-77
2023/05/30 04:41:24;;;;;;;4.40;1.48;;;12.50;99.90;;;;;;5060909;28;20284;-76
2023/05/30 04:43:54;;;;;;;6.90;2.23;;;12.70;99.90;;;;;;5057680;28;20103;-75
2023/05/30 04:46:24;;;;;;;6.07;1.88;;;12.70;99.90;;;;;;5045258;28;20121;-76
2023/05/30 04:48:55;;;;;;;6.10;1.92;;;12.90;99.90;;;;;;5052101;28;20582;-76
2023/05/30 04:51:23;;;;;;;4.68;2.03;;;13.00;99.90;;;;;;5064967;28;20056;-75
2023/05/30 04:53:52;;;;;;;8.60;2.63;;;13.00;99.90;;;;;;5047386;28;20563;-76
2023/05/30 04:56:21;;;;;;;10.50;2.53;;;13.00;99.90;;;;;;5044020;28;20055;-76
2023/05/30 04:58:51;;;;;;;4.88;1.63;;;13.20;99.90;;;;;;5058872;28;20056;-76
2023/05/30 05:01:20;;;;;;;5.80;1.65;;;13.30;99.90;;;;;;5047970;28;20045;-76
2023/05/30 05:03:50;;;;;;;7.20;1.90;;;13.30;99.90;;;;;;5063063;28;20106;-75
2023/05/30 05:06:18;;;;;;;9.40;2.92;;;13.40;99.90;;;;;;5058171;28;20472;-75
2023/05/30 05:08:46;;;;;;;6.18;2.00;;;13.40;99.90;;;;;;5038357;28;20045;-74
2023/05/30 05:11:14;;;;;;;7.95;1.95;;;13.40;99.90;;;;;;5063607;28;20043;-74
2023/05/30 05:13:42;;;;;;;3.75;1.98;;;13.30;99.90;;;;;;5060380;28;20049;-74
2023/05/30 05:16:10;;;;;;;3.47;1.60;;;13.40;99.90;;;;;;5064696;28;20516;-76
2023/05/30 05:18:40;;;;;;;7.47;1.83;;;13.40;99.90;;;;;;5070574;28;20053;-77
2023/05/30 05:21:08;;;;;;;20.08;2.20;;;13.50;99.90;;;;;;5057590;28;20044;-75
2023/05/30 05:23:36;;;;;;;9.32;2.08;;;13.50;99.90;;;;;;5060696;28;20139;-75
2023/05/30 05:26:04;;;;;;;3.33;1.63;;;13.40;99.90;;;;;;5038531;28;20571;-75
2023/05/30 05:28:32;;;;;;;6.45;1.90;;;13.50;99.90;;;;;;5058073;28;20127;-75
2023/05/30 05:31:11;;;;;;;8.38;1.70;;;13.50;99.90;;;;;;5056655;28;20521;-77
2023/05/30 05:33:42;;;;;;;9.85;1.92;;;13.70;99.90;;;;;;5061696;28;20511;-77
2023/05/30 05:36:14;;;;;;;18.15;3.40;;;13.90;99.90;;;;;;5067924;28;20083;-77
2023/05/30 05:38:42;;;;;;;13.27;2.60;;;14.00;99.90;;;;;;5065698;28;20048;-77
2023/05/30 05:41:09;;;;;;;12.38;2.50;;;14.10;99.90;;;;;;5052637;28;20037;-76
2023/05/30 05:43:37;;;;;;;18.55;3.50;;;14.10;99.90;;;;;;5054022;28;20051;-75
2023/05/30 05:46:05;;;;;;;7.70;1.90;;;14.10;99.90;;;;;;5059224;28;20089;-77
2023/05/30 05:48:34;;;;;;;2.97;1.70;;;14.10;99.90;;;;;;5041882;28;20045;-76
2023/05/30 05:51:01;;;;;;;7.07;1.58;;;14.10;99.90;;;;;;5067990;28;20046;-77
2023/05/30 05:53:30;;;;;;;3.33;1.40;;;14.20;99.90;;;;;;5061293;28;20049;-75
2023/05/30 05:56:00;;;;;;;2.13;1.42;;;14.50;99.90;;;;;;5054406;28;20052;-76
2023/05/30 05:58:28;;;;;;;6.45;1.45;;;14.90;99.90;;;;;;5061183;28;20106;-76
2023/05/30 06:00:55;;;;;;;4.32;1.73;;;15.40;99.90;;;;;;5061798;28;20045;-76
2023/05/30 06:03:23;;;;;;;4.10;1.90;;;16.00;99.90;;;;;;5055154;28;20052;-77
2023/05/30 06:05:51;;;;;;;7.47;1.88;;;16.70;99.90;;;;;;5065020;28;20071;-77
2023/05/30 06:08:18;;;;;;;6.30;1.42;;;17.00;99.90;;;;;;5066463;28;20051;-77
2023/05/30 06:10:47;;;;;;;4.15;2.00;;;17.10;99.90;;;;;;5051615;28;20053;-77
2023/05/30 06:13:15;;;;;;;4.10;1.48;;;17.20;99.00;;;;;;5052148;28;20053;-77
2023/05/30 06:15:43;;;;;;;10.10;2.13;;;17.30;99.00;;;;;;5056085;28;20123;-76
2023/05/30 06:18:11;;;;;;;27.17;2.05;;;17.40;98.70;;;;;;5054765;28;20040;-75
2023/05/30 06:20:38;;;;;;;5.25;1.38;;;17.40;96.10;;;;;;5067143;28;20452;-75
2023/05/30 06:23:06;;;;;;;5.63;1.40;;;17.20;95.60;;;;;;5066344;28;20416;-74
2023/05/30 06:25:34;;;;;;;7.70;1.60;;;17.00;96.40;;;;;;5058832;28;20136;-76
2023/05/30 06:28:04;;;;;;;2.88;1.23;;;17.00;96.70;;;;;;5063917;28;20127;-79
2023/05/30 06:30:32;;;;;;;3.22;1.42;;;17.00;96.40;;;;;;5068690;28;20136;-80
2023/05/30 06:33:03;;;;;;;5.68;1.27;;;17.00;95.50;;;;;;5054998;28;20041;-79
2023/05/30 06:35:32;;;;;;;4.72;1.48;;;16.90;94.90;;;;;;5055556;28;20107;-75
2023/05/30 06:37:59;;;;;;;9.85;1.45;;;16.90;95.00;;;;;;5058442;28;20099;-75
2023/05/30 06:40:27;;;;;;;11.88;1.60;;;16.90;94.60;;;;;;5061349;28;20080;-75
2023/05/30 06:42:54;;;;;;;4.63;1.77;;;16.90;94.90;;;;;;5063547;28;20048;-75
2023/05/30 06:45:23;;;;;;;6.15;1.38;;;17.00;95.00;;;;;;5060664;28;20057;-73
2023/05/30 06:47:51;;;;;;;5.57;1.30;;;17.00;95.10;;;;;;5061708;28;20049;-79
2023/05/30 06:50:24;;;;;;;6.90;1.65;;;17.10;93.70;;;;;;5048356;28;20044;-79
2023/05/30 06:52:55;;;;;;;4.72;1.63;;;17.10;94.40;;;;;;5055227;28;20538;-77
2023/05/30 06:55:23;;;;;;;5.45;1.30;;;17.20;94.00;;;;;;5066847;28;20053;-79
2023/05/30 06:57:55;;;;;;;5.10;1.13;;;17.30;93.30;;;;;;5050803;28;20053;-78
2023/05/30 07:00:25;;;;;;;2.42;1.75;;;17.40;93.50;;;;;;5058795;28;20143;-79
2023/05/30 07:02:52;;;;;;;4.40;1.30;;;17.40;93.80;;;;;;5055999;28;20052;-81
2023/05/30 07:05:20;;;;;;;4.85;1.60;;;17.50;93.80;;;;;;5052262;28;20044;-82
2023/05/30 07:07:48;;;;;;;3.53;1.08;;;17.80;93.40;;;;;;5056963;28;20057;-82
2023/05/30 07:10:19;;;;;;;3.67;1.02;;;18.10;92.70;;;;;;5066308;28;20049;-79
2023/05/30 07:12:49;;;;;;;9.18;1.60;;;18.00;91.60;;;;;;5061822;28;20049;-83
2023/05/30 07:15:17;;;;;;;8.43;1.73;;;17.90;91.60;;;;;;5051167;28;20045;-84
2023/05/30 07:17:46;;;;;;;5.75;1.00;;;17.80;90.70;;;;;;5060014;28;20060;-78
2023/05/30 07:20:20;;;;;;;7.03;1.60;;;17.60;90.70;;;;;;5064357;28;20697;-77
2023/05/30 07:22:58;;;;;;;2.25;1.35;;;17.60;91.50;;;;;;5062296;28;20096;-84
2023/05/30 07:25:26;;;;;;;6.38;2.10;;;17.70;90.30;;;;;;5053371;28;20045;-85
2023/05/30 07:27:54;;;;;;;2.97;1.33;;;18.00;90.30;;;;;;5061273;28;20051;-82
2023/05/30 07:30:23;;;;;;;3.60;1.50;;;18.30;90.00;;;;;;5066784;28;20061;-82
2023/05/30 07:32:52;;;;;;;6.00;1.40;;;18.60;85.60;;;;;;5069169;28;20072;-84
2023/05/30 07:35:20;;;;;;;10.35;1.88;;;19.30;80.10;;;;;;5046180;28;20619;-79
2023/05/30 07:37:50;;;;;;;1.73;1.00;;;19.30;77.30;;;;;;5062577;28;20048;-80
2023/05/30 07:40:21;;;;;;;3.85;1.30;;;19.30;75.50;;;;;;5064034;28;20412;-81
2023/05/30 07:42:49;;;;;;;5.53;1.60;;;20.10;74.00;;;;;;5053916;28;20049;-84
2023/05/30 07:45:19;;;;;;;3.88;1.33;;;20.70;68.90;;;;;;5062933;28;20040;-85
2023/05/30 07:47:46;;;;;;;6.20;1.60;;;21.60;63.90;;;;;;5053867;28;20056;-82
2023/05/30 07:50:15;;;;;;;3.90;1.85;;;21.90;63.30;;;;;;5066014;28;20415;-84
2023/05/30 07:52:43;;;;;;;7.63;1.50;;;22.50;60.20;;;;;;5063370;28;20143;-81
2023/05/30 07:55:11;;;;;;;4.97;1.20;;;23.10;59.30;;;;;;5061360;28;20097;-80
2023/05/30 07:57:39;;;;;;;15.13;2.08;;;22.80;56.90;;;;;;5073272;28;20136;-80
2023/05/30 08:00:11;;;;;;;3.33;1.15;;;22.30;58.50;;;;;;5070930;28;20050;-78
2023/05/30 08:02:42;;;;;;;8.10;1.75;;;21.70;58.60;;;;;;5062794;28;20489;-80
2023/05/30 08:05:09;;;;;;;5.50;1.50;;;21.80;58.90;;;;;;5056179;28;20053;-79
2023/05/30 08:07:39;;;;;;;5.78;1.10;;;22.10;57.80;;;;;;5071328;28;20129;-80
2023/05/30 08:10:08;;;;;;;4.18;1.67;;;22.10;55.60;;;;;;5066149;28;20060;-79
2023/05/30 08:12:36;;;;;;;6.28;1.42;;;22.20;57.50;;;;;;5061008;28;20057;-80
2023/05/30 08:15:04;;;;;;;6.55;1.45;;;22.40;55.60;;;;;;5067301;28;20049;-79
2023/05/30 08:17:35;;;;;;;5.35;1.60;;;22.20;54.40;;;;;;5054566;28;20061;-81
2023/05/30 08:20:04;;;;;;;3.47;1.25;;;22.30;54.00;;;;;;5055286;28;20094;-78
2023/05/30 08:22:33;;;;;;;8.48;1.85;;;22.60;53.10;;;;;;5064018;28;20047;-78
2023/05/30 08:25:02;;;;;;;4.70;1.30;;;22.90;53.10;;;;;;5055429;28;20074;-79
2023/05/30 08:27:39;;;;;;;5.15;1.40;;;23.90;52.30;;;;;;5054169;28;20118;-76
2023/05/30 08:30:11;;;;;;;5.00;2.28;;;24.90;50.30;;;;;;5052075;28;20122;-80
2023/05/30 08:32:40;;;;;;;4.38;1.63;;;25.80;48.30;;;;;;5050902;28;20048;-79
2023/05/30 08:35:09;;;;;;;9.00;1.67;;;25.60;47.30;;;;;;5034815;28;20496;-78
2023/05/30 08:37:37;;;;;;;7.68;1.83;;;24.90;47.70;;;;;;5059961;28;20041;-78
2023/05/30 08:40:10;;;;;;;4.57;1.40;;;24.90;47.20;;;;;;5057271;28;20056;-83
2023/05/30 08:42:38;;;;;;;6.70;1.73;;;25.50;48.20;;;;;;5067472;28;20048;-85
2023/05/30 08:45:07;;;;;;;6.00;1.83;;;26.10;45.60;;;;;;5054227;28;20674;-80
2023/05/30 08:47:36;;;;;;;6.05;1.40;;;26.60;45.00;;;;;;5051665;28;20048;-83
2023/05/30 08:50:07;;;;;;;2.30;1.35;;;26.60;43.90;;;;;;5050917;28;20048;-81
2023/05/30 08:52:36;;;;;;;8.90;1.60;;;26.90;42.60;;;;;;5065991;28;20049;-81
2023/05/30 08:55:13;;;;;;;8.27;1.67;;;27.00;42.10;;;;;;5056982;28;20058;-84
2023/05/30 08:57:45;;;;;;;3.85;1.13;;;27.40;41.60;;;;;;5061590;28;20117;-80
2023/05/30 09:00:15;;;;;;;3.53;1.40;;;27.70;40.50;;;;;;5062296;28;20678;-84
2023/05/30 09:02:45;;;;;;;3.28;2.00;;;27.90;41.90;;;;;;5062677;28;20043;-83
2023/05/30 09:05:16;;;;;;;2.65;1.48;;;28.00;42.30;;;;;;5056304;28;20094;-84
2023/05/30 09:07:45;;;;;;;4.28;1.48;;;28.20;41.00;;;;;;5071802;28;20052;-81
2023/05/30 09:10:16;;;;;;;1.85;1.63;;;28.50;40.40;;;;;;5071451;28;20140;-82
2023/05/30 09:12:44;;;;;;;5.13;1.52;;;28.90;41.40;;;;;;5071018;28;20501;-83
2023/05/30 09:15:12;;;;;;;4.05;1.70;;;29.10;40.00;;;;;;5060386;28;20431;-83
2023/05/30 09:17:40;;;;;;;4.75;1.42;;;29.10;39.90;;;;;;5055694;28;20053;-82
2023/05/30 09:20:10;;;;;;;6.72;1.80;;;29.30;41.50;;;;;;5054031;28;20052;-84
2023/05/30 09:22:38;;;;;;;3.90;1.88;;;29.40;41.30;;;;;;5052471;28;20049;-83
2023/05/30 09:25:08;;;;;;;5.22;2.13;;;29.20;40.90;;;;;;5061197;28;20045;-83
2023/05/30 09:27:38;;;;;;;5.85;1.75;;;29.20;40.10;;;;;;5056345;28;20045;-81
2023/05/30 09:30:08;;;;;;;5.55;1.70;;;29.40;40.00;;;;;;5059916;28;20505;-87
2023/05/30 09:32:36;;;;;;;4.45;2.05;;;29.50;40.50;;;;;;5057960;28;20053;-84
2023/05/30 09:35:09;;;;;;;6.85;2.00;;;29.60;40.50;;;;;;5060223;28;20132;-86
2023/05/30 09:37:38;;;;;;;3.67;1.65;;;29.70;40.80;;;;;;5062122;28;20052;-84
2023/05/30 09:40:09;;;;;;;3.20;1.75;;;29.90;40.40;;;;;;5063543;28;20056;-82
2023/05/30 09:42:44;;;;;;;6.00;2.15;;;29.80;40.50;;;;;;5064183;28;20425;-80
2023/05/30 09:45:14;;;;;;;4.88;1.80;;;29.90;42.00;;;;;;5049837;28;20056;-81
2023/05/30 09:47:44;;;;;;;2.47;1.73;;;29.90;42.50;;;;;;5056293;28;20048;-79
2023/05/30 09:50:14;;;;;;;4.82;1.67;;;30.10;42.60;;;;;;5054803;28;20044;-80
2023/05/30 09:52:45;;;;;;;7.60;1.75;;;30.10;41.60;;;;;;5056214;28;20052;-80
2023/05/30 09:55:17;;;;;;;6.18;1.80;;;30.10;41.00;;;;;;5058015;28;20053;-81
2023/05/30 09:57:51;;;;;;;6.55;1.95;;;30.00;40.90;;;;;;5051044;28;20075;-79
2023/05/30 10:00:25;;;;;;;8.65;2.20;;;30.00;42.00;;;;;;5060283;28;20052;-79
2023/05/30 10:02:55;;;;;;;3.35;1.90;;;30.00;41.10;;;;;;5059224;28;20325;-79
2023/05/30 10:05:25;;;;;;;4.35;1.80;;;29.90;40.30;;;;;;5067167;28;20512;-81
2023/05/30 10:07:55;;;;;;;8.70;2.10;;;30.10;40.60;;;;;;5046761;28;20056;-83
2023/05/30 10:10:27;;;;;;;5.05;1.75;;;30.40;41.10;;;;;;5052277;28;20080;-84
2023/05/30 10:13:08;;;;;;;7.60;2.05;;;30.50;40.30;;;;;;5054960;28;20143;-80
2023/05/30 10:15:37;;;;;;;5.50;1.85;;;30.60;41.00;;;;;;5066828;28;20075;-82
2023/05/30 10:18:08;;;;;;;7.60;2.17;;;30.70;40.60;;;;;;5051509;28;20571;-81
2023/05/30 10:20:39;;;;;;;2.42;1.50;;;30.70;40.00;;;;;;5064423;28;20423;-80
2023/05/30 10:23:07;;;;;;;6.95;1.80;;;30.80;39.90;;;;;;5050062;28;20041;-80
2023/05/30 10:25:37;;;;;;;4.63;1.70;;;30.90;39.70;;;;;;5065202;28;20106;-81
2023/05/30 10:28:10;;;;;;;8.73;1.70;;;30.80;40.40;;;;;;5065010;28;20144;-81
2023/05/30 10:30:38;;;;;;;6.47;1.80;;;31.00;40.10;;;;;;5063551;28;20053;-79
2023/05/30 10:33:09;;;;;;;5.82;2.00;;;30.80;39.60;;;;;;5066591;28;20496;-80
2023/05/30 10:35:38;;;;;;;4.43;1.58;;;30.70;39.00;;;;;;5050789;28;20059;-79
2023/05/30 10:38:11;;;;;;;7.95;1.92;;;30.40;40.10;;;;;;5053914;28;20106;-80
2023/05/30 10:40:50;;;;;;;8.48;1.95;;;30.40;40.00;;;;;;5037847;28;20071;-79
2023/05/30 10:43:45;;;;;;;7.57;2.20;;;30.50;39.40;;;;;;5056692;28;20143;-79
2023/05/30 10:46:25;;;;;;;7.13;1.83;;;30.50;39.40;;;;;;5050223;28;20049;-79
2023/05/30 10:48:57;;;;;;;5.60;1.70;;;30.70;40.50;;;;;;5053586;28;20527;-79
2023/05/30 10:51:25;;;;;;;4.53;1.85;;;30.90;40.00;;;;;;5052150;28;20052;-79
2023/05/30 10:53:53;;;;;;;6.82;1.90;;;31.10;40.10;;;;;;5075101;28;20049;-78
2023/05/30 10:56:41;;;;;;;5.75;1.83;;;31.40;40.80;;;;;;5053356;28;20505;-80
2023/05/30 10:59:19;;;;;;;12.25;2.03;;;31.60;39.00;;;;;;5049663;28;20049;-78
2023/05/30 11:02:00;;;;;;;7.75;1.75;;;31.60;39.80;;;;;;5063047;28;20052;-80
2023/05/30 11:04:34;;;;;;;6.97;1.67;;;31.70;37.90;;;;;;5055304;28;20045;-78
2023/05/30 11:07:05;;;;;;;3.63;1.70;;;31.50;38.50;;;;;;5059342;28;20143;-79
2023/05/30 11:09:33;;;;;;;8.68;1.80;;;31.70;38.30;;;;;;5056930;28;20041;-79
2023/05/30 11:12:02;;;;;;;2.80;1.70;;;31.80;38.40;;;;;;5059185;28;20623;-77
2023/05/30 11:14:32;;;;;;;5.80;1.60;;;31.70;38.30;;;;;;5058961;28;20063;-81
2023/05/30 11:17:06;;;;;;;6.00;1.98;;;31.70;37.60;;;;;;5069846;28;20076;-77
2023/05/30 11:19:39;;;;;;;6.22;1.90;;;31.80;38.60;;;;;;5061069;28;20052;-79
2023/05/30 11:22:11;;;;;;;8.48;1.70;;;31.80;38.70;;;;;;5058282;28;20572;-79
2023/05/30 11:24:40;;;;;;;6.25;1.80;;;31.80;38.10;;;;;;5059210;28;20045;-79
2023/05/30 11:27:13;;;;;;;2.90;1.40;;;31.70;38.70;;;;;;5047576;28;20464;-80
2023/05/30 11:29:51;;;;;;;7.35;1.67;;;31.60;38.50;;;;;;5067956;28;20137;-81
2023/05/30 11:32:20;;;;;;;4.55;1.77;;;31.90;39.20;;;;;;5064574;28;20051;-79
2023/05/30 11:35:00;;;;;;;7.55;1.75;;;31.90;38.70;;;;;;5050369;28;20055;-80
2023/05/30 11:37:31;;;;;;;3.70;2.03;;;32.10;38.50;;;;;;5035507;28;20044;-81
2023/05/30 11:40:01;;;;;;;6.55;2.28;;;32.10;39.70;;;;;;5053680;28;20463;-81
2023/05/30 11:42:32;;;;;;;6.65;1.83;;;32.30;39.00;;;;;;5068231;28;20074;-80
2023/05/30 11:45:01;;;;;;;6.95;2.33;;;32.40;38.20;;;;;;5054574;28;20044;-79
2023/05/30 11:47:35;;;;;;;6.80;1.77;;;32.30;39.10;;;;;;5055736;28;20429;-81
2023/05/30 11:50:04;;;;;;;7.68;2.55;;;32.50;38.10;;;;;;5050166;28;20044;-81
2023/05/30 11:52:39;;;;;;;5.13;1.73;;;32.40;38.20;;;;;;5037202;28;20421;-81
2023/05/30 11:55:08;;;;;;;6.57;1.70;;;32.70;39.00;;;;;;5052924;28;20338;-80
2023/05/30 11:57:36;;;;;;;6.68;1.95;;;32.90;39.60;;;;;;5060900;28;20045;-79
2023/05/30 12:00:11;;;;;;;5.18;1.85;;;32.70;38.70;;;;;;5049836;28;20072;-80
2023/05/30 12:02:43;;;;;;;5.32;1.55;;;32.50;39.40;;;;;;5050284;28;20055;-80
2023/05/30 12:05:11;;;;;;;10.43;2.13;;;32.40;39.30;;;;;;5048169;28;20417;-80
2023/05/30 12:07:41;;;;;;;5.28;1.85;;;32.30;38.70;;;;;;5043550;28;20087;-82
2023/05/30 12:10:10;;;;;;;10.40;2.08;;;32.20;40.00;;;;;;5056231;28;20516;-80
2023/05/30 12:12:37;;;;;;;4.85;1.73;;;32.40;39.50;;;;;;5055368;28;20045;-79
2023/05/30 12:15:09;;;;;;;6.15;1.80;;;32.50;39.60;;;;;;5058306;28;20037;-78
2023/05/30 12:17:41;;;;;;;6.13;1.90;;;32.30;39.30;;;;;;5058152;28;20033;-78
2023/05/30 12:20:14;;;;;;;;;;;32.40;39.30;;;;;;5059738;28;20455;-76
2023/05/30 12:22:44;;;;;;;5.80;2.30;;;32.30;39.80;;;;;;5068499;28;19924;-77
2023/05/30 12:25:13;;;;;;;5.32;2.28;;;32.30;40.40;;;;;;5064460;28;20086;-75
2023/05/30 12:27:47;;;;;;;7.95;2.45;;;32.40;39.10;;;;;;5053782;28;20059;-76
2023/05/30 12:30:19;;;;;;;6.32;1.75;;;32.60;39.00;;;;;;5052927;28;20061;-76
2023/05/30 12:32:46;;;;;;;;;;;31.60;39.80;;;;;;5063966;28;20051;-76
2023/05/30 12:35:15;;;;;;;5.65;1.90;;;30.80;41.50;;;;;;5055898;28;19925;-78
2023/05/30 12:37:43;;;;;;;10.73;1.92;;;31.00;41.50;;;;;;5065762;28;20135;-75
2023/05/30 12:40:12;;;;;;;5.15;1.90;;;31.50;41.00;;;;;;5051302;28;20106;-76
2023/05/30 12:42:45;;;;;;;3.55;1.60;;;32.20;40.10;;;;;;5069194;28;20059;-76
2023/05/30 12:45:13;;;;;;;10.35;2.22;;;32.40;39.70;;;;;;5069460;28;20098;-79
2023/05/30 12:47:41;;;;;;;8.48;2.50;;;32.40;39.80;;;;;;5071873;28;20070;-78
2023/05/30 12:50:11;;;;;;;6.15;2.38;;;32.40;39.40;;;;;;5064037;28;20122;-79
2023/05/30 12:52:38;;;;;;;8.95;2.22;;;32.30;40.20;;;;;;5054650;28;20517;-79
2023/05/30 12:55:07;;;;;;;7.63;2.60;;;32.40;40.00;;;;;;5049734;28;20049;-74
2023/05/30 12:57:35;;;;;;;12.68;2.00;;;32.20;40.90;;;;;;5066755;28;20044;-75
2023/05/30 13:00:07;;;;;;;13.45;2.42;;;32.60;40.90;;;;;;5058177;28;20516;-80